Time;durP1;ratioP1;P1;durP2;ratioP2;P2;SDS_P1;SDS_P2;PMS_P1;PMS_P2;Temp;Humidity;BMP_temperature;BMP_pressure;BME280_temperature;BME280_humidity;BME280_pressure;Samples;Min_cycle;Max_cycle;Signal;HPM_P1;HPM_P2
2023/02/08 00:01:17;;;;;;;11.53;6.27;;;-0.90;99.90;;;;;;5014662;28;20200;-85
2023/02/08 00:03:43;;;;;;;4.70;4.10;;;-0.90;99.90;;;;;;5002039;28;20181;-86
2023/02/08 00:06:09;;;;;;;8.77;4.03;;;-0.80;99.90;;;;;;4998093;28;20671;-86
2023/02/08 00:08:36;;;;;;;8.27;4.67;;;-0.50;99.90;;;;;;5001409;28;20282;-84
2023/02/08 00:11:03;;;;;;;16.33;6.73;;;-0.80;99.90;;;;;;5027993;28;20184;-85
2023/02/08 00:13:28;;;;;;;13.43;5.87;;;-0.80;99.90;;;;;;5038683;28;20180;-85
2023/02/08 00:15:54;;;;;;;24.40;8.90;;;-0.20;99.90;;;;;;5041266;28;20213;-85
2023/02/08 00:18:21;;;;;;;26.70;9.73;;;-0.20;99.90;;;;;;5009455;28;20739;-85
2023/02/08 00:20:47;;;;;;;27.10;9.07;;;-0.80;99.90;;;;;;5026481;28;20235;-84
2023/02/08 00:23:13;;;;;;;17.53;7.13;;;-0.10;99.90;;;;;;5034849;28;20203;-85
2023/02/08 00:25:40;;;;;;;19.60;8.00;;;-0.70;99.90;;;;;;5018595;28;20199;-86
2023/02/08 00:28:07;;;;;;;7.07;2.90;;;-0.80;99.90;;;;;;5034641;28;20675;-85
2023/02/08 00:30:34;;;;;;;8.03;3.77;;;-0.90;99.90;;;;;;5006310;28;20184;-85
2023/02/08 00:33:01;;;;;;;16.13;6.90;;;-0.80;99.90;;;;;;5023470;28;20181;-85
2023/02/08 00:35:27;;;;;;;5.30;3.13;;;-0.60;99.90;;;;;;4980302;28;20188;-86
2023/02/08 00:37:53;;;;;;;20.87;5.77;;;-0.90;99.90;;;;;;4989059;28;20573;-85
2023/02/08 00:40:18;;;;;;;13.87;5.50;;;-0.80;99.90;;;;;;5004298;28;20189;-85
2023/02/08 00:42:44;;;;;;;6.70;4.17;;;-0.90;99.90;;;;;;5000587;28;20184;-84
2023/02/08 00:45:10;;;;;;;18.03;5.67;;;-0.90;99.90;;;;;;4997444;28;20203;-85
2023/02/08 00:47:36;;;;;;;8.20;4.33;;;-0.90;99.90;;;;;;4980458;28;20219;-85
2023/02/08 00:50:03;;;;;;;11.93;4.87;;;-0.90;99.90;;;;;;4996576;28;20208;-85
2023/02/08 00:52:28;;;;;;;2.90;2.67;;;-0.90;99.90;;;;;;5002325;28;20241;-86
2023/02/08 00:54:54;;;;;;;20.27;7.90;;;-0.90;99.90;;;;;;5000815;28;20576;-85
2023/02/08 00:57:20;;;;;;;14.13;6.30;;;-0.90;99.90;;;;;;4996323;28;20262;-85
2023/02/08 00:59:46;;;;;;;4.27;3.57;;;;;;;;;;4980048;28;20181;-85
2023/02/08 01:02:11;;;;;;;6.30;4.47;;;-0.90;99.90;;;;;;5014762;28;20547;-85
2023/02/08 01:04:37;;;;;;;7.43;4.00;;;-0.90;99.90;;;;;;5015797;28;20180;-85
2023/02/08 01:07:04;;;;;;;15.50;5.07;;;-0.90;99.90;;;;;;5033624;28;20175;-85
2023/02/08 01:09:30;;;;;;;13.93;5.73;;;-0.90;99.90;;;;;;5028284;28;20188;-85
2023/02/08 01:11:56;;;;;;;8.63;6.07;;;0.40;99.90;;;;;;4982467;28;20189;-85
2023/02/08 01:14:22;;;;;;;11.50;4.53;;;-0.60;99.90;;;;;;4996054;28;20203;-85
2023/02/08 01:16:48;;;;;;;19.57;4.77;;;-0.90;99.90;;;;;;4979694;28;20213;-85
2023/02/08 01:19:13;;;;;;;5.00;3.87;;;-0.90;99.90;;;;;;4996062;28;20625;-85
2023/02/08 01:21:41;;;;;;;9.90;5.87;;;-0.90;99.90;;;;;;5013552;28;20251;-85
2023/02/08 01:24:07;;;;;;;9.47;4.93;;;-0.90;99.90;;;;;;4995965;28;20211;-85
2023/02/08 01:26:34;;;;;;;22.80;9.03;;;;;;;;;;5015118;28;20192;-86
2023/02/08 01:29:00;;;;;;;10.80;6.00;;;-1.00;99.90;;;;;;4995829;28;20188;-85
2023/02/08 01:31:31;;;;;;;11.17;4.23;;;-1.00;99.90;;;;;;4979764;28;20545;-85
2023/02/08 01:33:58;;;;;;;8.77;4.57;;;-1.00;99.90;;;;;;5021568;28;20229;-85
2023/02/08 01:36:25;;;;;;;5.17;3.47;;;-1.00;99.90;;;;;;5009409;28;20215;-84
2023/02/08 01:38:51;;;;;;;8.33;3.00;;;-1.00;99.90;;;;;;5024380;28;20191;-85
2023/02/08 01:41:23;;;;;;;4.27;3.33;;;-1.00;99.90;;;;;;4986173;28;20191;-85
2023/02/08 01:44:03;;;;;;;8.40;3.17;;;-1.00;99.90;;;;;;5025751;28;20181;-85
2023/02/08 01:46:30;;;;;;;4.63;3.50;;;-0.60;99.90;;;;;;5037063;28;20274;-85
2023/02/08 01:49:00;;;;;;;11.57;3.03;;;-1.00;99.90;;;;;;5019290;28;20195;-85
2023/02/08 01:51:31;;;;;;;4.33;3.47;;;-1.00;99.90;;;;;;5026445;28;20188;-84
2023/02/08 01:53:58;;;;;;;14.23;5.60;;;-1.00;99.90;;;;;;5008710;28;20187;-85
2023/02/08 01:56:32;;;;;;;10.00;6.80;;;-0.90;99.90;;;;;;5036837;28;20716;-84
2023/02/08 01:59:00;;;;;;;12.77;5.77;;;-1.10;99.90;;;;;;5019687;28;20181;-85
2023/02/08 02:01:29;;;;;;;41.73;9.67;;;-0.90;99.90;;;;;;5030861;28;20194;-84
2023/02/08 02:03:56;;;;;;;33.33;13.47;;;-1.10;99.90;;;;;;5018829;28;20218;-84
2023/02/08 02:06:27;;;;;;;67.40;14.63;;;-1.10;99.90;;;;;;5036485;28;20183;-84
2023/02/08 02:09:03;;;;;;;43.87;12.70;;;-1.00;99.90;;;;;;5036555;28;20214;-85
2023/02/08 02:11:29;;;;;;;42.90;13.73;;;-1.00;99.90;;;;;;5037041;28;20171;-85
2023/02/08 02:13:55;;;;;;;58.33;13.90;;;;;;;;;;5000700;28;20191;-84
2023/02/08 02:16:21;;;;;;;67.20;17.17;;;-1.00;99.90;;;;;;5018306;28;20238;-85
2023/02/08 02:18:47;;;;;;;36.43;13.50;;;;;;;;;;4999030;28;20181;-84
2023/02/08 02:21:35;;;;;;;31.00;11.40;;;-1.10;99.90;;;;;;5016516;28;20228;-85
2023/02/08 02:24:41;;;;;;;36.67;9.87;;;-1.10;99.90;;;;;;5015110;28;20181;-84
2023/02/08 02:27:13;;;;;;;15.67;6.30;;;-1.10;99.90;;;;;;4920602;29;20195;-84
2023/02/08 02:30:21;;;;;;;42.50;10.97;;;-1.10;99.90;;;;;;4942052;29;20179;-84
2023/02/08 02:33:06;;;;;;;18.83;7.43;;;-1.10;99.90;;;;;;5001271;28;20195;-85
2023/02/08 02:35:50;;;;;;;17.27;6.23;;;-1.10;99.90;;;;;;5018396;28;20194;-85
2023/02/08 02:38:24;;;;;;;9.87;6.33;;;-1.10;99.90;;;;;;5018294;28;20219;-84
2023/02/08 02:41:13;;;;;;;12.13;5.33;;;-1.10;99.90;;;;;;5034972;28;20220;-85
2023/02/08 02:43:50;;;;;;;11.23;4.37;;;-1.10;99.90;;;;;;5028782;28;20188;-85
2023/02/08 02:46:28;;;;;;;17.93;4.87;;;-1.00;99.90;;;;;;5006809;28;20204;-85
2023/02/08 02:49:01;;;;;;;5.03;2.80;;;-1.00;99.90;;;;;;5022849;28;20251;-85
2023/02/08 02:51:32;;;;;;;4.60;2.70;;;-1.10;99.90;;;;;;5015797;28;20513;-85
2023/02/08 02:54:13;;;;;;;1.97;1.57;;;-0.90;99.90;;;;;;4998394;28;20622;-84
2023/02/08 02:56:43;;;;;;;10.60;3.37;;;-1.10;99.90;;;;;;5012884;28;20669;-84
2023/02/08 02:59:11;;;;;;;7.00;3.33;;;-1.10;99.90;;;;;;5024408;28;20186;-84
2023/02/08 03:01:38;;;;;;;5.23;3.07;;;0.00;99.90;;;;;;5034953;28;20209;-84
2023/02/08 03:04:31;;;;;;;6.57;3.63;;;-1.10;99.90;;;;;;5017920;28;20235;-84
2023/02/08 03:07:24;;;;;;;3.40;3.10;;;-1.10;99.90;;;;;;5016901;28;20192;-86
2023/02/08 03:10:49;;;;;;;2.50;2.03;;;-1.10;99.90;;;;;;5014358;28;20584;-85
2023/02/08 03:13:41;;;;;;;2.27;2.17;;;-1.10;99.90;;;;;;4911293;29;20187;-84
2023/02/08 03:16:36;;;;;;;5.27;2.30;;;-1.10;99.90;;;;;;4910907;29;20247;-84
2023/02/08 03:19:01;;;;;;;3.87;2.63;;;-1.10;99.90;;;;;;4985053;28;20667;-85
2023/02/08 03:21:37;;;;;;;2.10;2.00;;;-1.10;99.90;;;;;;5015480;28;20273;-85
2023/02/08 03:24:21;;;;;;;3.27;2.80;;;-1.10;99.90;;;;;;5022487;28;20188;-85
2023/02/08 03:27:04;;;;;;;2.63;2.47;;;-1.10;99.90;;;;;;5015444;28;20673;-85
2023/02/08 03:29:50;;;;;;;3.87;2.60;;;-1.10;99.90;;;;;;5028064;28;20179;-84
2023/02/08 03:32:30;;;;;;;8.03;3.43;;;-1.10;99.90;;;;;;5035058;28;20161;-84
2023/02/08 03:35:08;;;;;;;4.03;2.53;;;-1.10;99.90;;;;;;5017238;28;20516;-85
2023/02/08 03:37:49;;;;;;;3.80;2.33;;;-1.10;99.90;;;;;;5034981;28;20286;-85
2023/02/08 03:40:25;;;;;;;3.17;2.23;;;-1.10;99.90;;;;;;5034032;28;20258;-84
2023/02/08 03:42:54;;;;;;;5.87;2.47;;;-1.10;99.90;;;;;;5035001;28;20202;-85
2023/02/08 03:45:32;;;;;;;4.77;3.47;;;-1.10;99.90;;;;;;5013664;28;20271;-84
2023/02/08 03:48:01;;;;;;;5.60;2.97;;;-1.10;99.90;;;;;;5030535;28;20184;-84
2023/02/08 03:50:29;;;;;;;7.97;2.90;;;-1.10;99.90;;;;;;5035278;28;20188;-85
2023/02/08 03:52:55;;;;;;;3.90;2.03;;;-1.10;99.90;;;;;;5013917;28;20173;-85
2023/02/08 03:55:29;;;;;;;2.37;2.10;;;-1.10;99.90;;;;;;5000637;28;20194;-84
2023/02/08 03:58:18;;;;;;;6.07;2.90;;;-0.30;99.90;;;;;;5016544;28;20225;-85
2023/02/08 04:00:53;;;;;;;2.17;1.97;;;-1.10;99.90;;;;;;5016994;28;20177;-85
2023/02/08 04:03:23;;;;;;;3.00;2.67;;;-1.10;99.90;;;;;;5019789;28;20193;-85
2023/02/08 04:05:49;;;;;;;4.03;2.57;;;-0.20;99.90;;;;;;5016592;28;20184;-85
2023/02/08 04:08:15;;;;;;;3.93;2.33;;;-0.60;99.90;;;;;;5016170;28;20195;-85
2023/02/08 04:10:41;;;;;;;4.10;2.47;;;-1.10;99.90;;;;;;5000622;28;20190;-86
2023/02/08 04:13:07;;;;;;;7.97;2.50;;;-0.90;99.90;;;;;;5000189;28;20177;-86
2023/02/08 04:15:32;;;;;;;2.60;2.10;;;-1.00;99.90;;;;;;5016763;28;20181;-85
2023/02/08 04:17:58;;;;;;;4.43;2.43;;;-0.70;99.90;;;;;;4999938;28;20239;-86
2023/02/08 04:20:23;;;;;;;6.70;2.83;;;-1.00;99.90;;;;;;5006820;28;20189;-85
2023/02/08 04:22:49;;;;;;;2.43;2.23;;;-1.00;99.90;;;;;;5030965;28;20236;-84
2023/02/08 04:25:15;;;;;;;6.20;4.17;;;-1.00;99.90;;;;;;5029403;28;20197;-86
2023/02/08 04:27:41;;;;;;;9.83;5.13;;;-1.00;99.90;;;;;;5013281;28;20201;-86
2023/02/08 04:30:07;;;;;;;4.20;2.00;;;-1.00;99.90;;;;;;5003498;28;20286;-86
2023/02/08 04:32:33;;;;;;;5.33;3.77;;;-1.00;99.90;;;;;;5035234;28;20180;-86
2023/02/08 04:34:58;;;;;;;5.73;4.00;;;-0.90;99.90;;;;;;5013786;28;20187;-86
2023/02/08 04:37:24;;;;;;;3.40;2.33;;;-0.90;99.90;;;;;;5032648;28;20297;-86
2023/02/08 04:39:50;;;;;;;4.57;2.77;;;0.10;99.90;;;;;;5016525;28;20577;-85
2023/02/08 04:42:16;;;;;;;2.53;2.33;;;-1.00;99.90;;;;;;5016031;28;20184;-85
2023/02/08 04:44:43;;;;;;;6.57;3.27;;;-0.40;99.90;;;;;;5015725;28;20179;-86
2023/02/08 04:47:08;;;;;;;12.67;4.13;;;-1.00;99.90;;;;;;5030821;28;20752;-85
2023/02/08 04:49:34;;;;;;;14.53;7.83;;;-1.00;99.90;;;;;;5021776;28;20300;-84
2023/02/08 04:52:01;;;;;;;7.07;4.27;;;-1.00;99.90;;;;;;5014461;28;20551;-84
2023/02/08 04:54:27;;;;;;;12.57;6.43;;;-1.00;99.90;;;;;;4988460;28;20187;-86
2023/02/08 04:56:52;;;;;;;14.63;4.03;;;-0.80;99.90;;;;;;4995468;28;20209;-86
2023/02/08 04:59:18;;;;;;;13.53;6.63;;;-1.00;99.90;;;;;;4986478;28;20212;-85
2023/02/08 05:01:44;;;;;;;10.33;5.73;;;-1.00;99.90;;;;;;5013585;28;20199;-84
2023/02/08 05:04:10;;;;;;;10.50;5.13;;;-1.00;99.90;;;;;;4980391;28;20202;-84
2023/02/08 05:06:36;;;;;;;7.07;4.43;;;-1.00;99.90;;;;;;5032281;28;20180;-85
2023/02/08 05:09:01;;;;;;;5.20;3.67;;;-1.00;99.90;;;;;;5033848;28;20179;-84
2023/02/08 05:11:27;;;;;;;14.93;6.90;;;-0.80;99.90;;;;;;5044074;28;20247;-84
2023/02/08 05:13:53;;;;;;;22.03;11.00;;;-1.00;99.90;;;;;;5014447;28;20199;-84
2023/02/08 05:16:19;;;;;;;7.00;4.27;;;-1.10;99.90;;;;;;5001895;28;20578;-84
2023/02/08 05:18:45;;;;;;;6.40;3.90;;;-1.00;99.90;;;;;;5035067;28;20212;-83
2023/02/08 05:21:10;;;;;;;5.40;4.50;;;-1.00;99.90;;;;;;5036808;28;20709;-83
2023/02/08 05:23:37;;;;;;;6.70;3.93;;;-1.10;99.90;;;;;;5017968;28;20648;-83
2023/02/08 05:26:07;;;;;;;13.23;5.83;;;-1.10;99.90;;;;;;5036854;28;20178;-86
2023/02/08 05:28:33;;;;;;;3.70;3.33;;;-1.20;99.90;;;;;;5013481;28;20206;-84
2023/02/08 05:31:06;;;;;;;8.63;5.33;;;-0.90;99.90;;;;;;5021427;28;20193;-85
2023/02/08 05:33:32;;;;;;;7.30;3.83;;;-1.20;99.90;;;;;;5011109;28;20183;-84
2023/02/08 05:35:57;;;;;;;7.40;5.63;;;-1.20;99.90;;;;;;5026221;28;20665;-86
2023/02/08 05:38:23;;;;;;;19.80;8.30;;;-1.40;99.90;;;;;;5015419;28;20712;-86
2023/02/08 05:40:49;;;;;;;11.53;4.67;;;-1.30;99.90;;;;;;5019298;28;20648;-84
2023/02/08 05:43:14;;;;;;;10.23;4.70;;;-1.30;99.90;;;;;;4985136;28;20544;-85
2023/02/08 05:45:40;;;;;;;19.03;6.63;;;-1.30;99.90;;;;;;5040077;28;20216;-86
2023/02/08 05:48:06;;;;;;;11.90;6.07;;;-1.30;99.90;;;;;;5022712;28;20189;-85
2023/02/08 05:50:31;;;;;;;11.17;4.37;;;-1.40;99.90;;;;;;5009852;28;20235;-85
2023/02/08 05:52:58;;;;;;;7.67;4.07;;;-1.40;99.90;;;;;;5023964;28;20534;-84
2023/02/08 05:55:26;;;;;;;5.63;3.63;;;-1.50;99.90;;;;;;5039886;28;20188;-85
2023/02/08 05:57:51;;;;;;;11.47;5.97;;;-1.60;99.90;;;;;;5009943;28;20299;-85
2023/02/08 06:00:18;;;;;;;7.70;4.13;;;-1.70;99.90;;;;;;5004962;28;20277;-84
2023/02/08 06:02:44;;;;;;;8.97;4.53;;;-1.80;99.90;;;;;;5025752;28;20173;-85
2023/02/08 06:05:10;;;;;;;6.93;3.63;;;-1.80;99.90;;;;;;5024256;28;20190;-85
2023/02/08 06:07:36;;;;;;;4.37;2.90;;;-1.90;99.90;;;;;;5014184;28;20239;-84
2023/02/08 06:10:02;;;;;;;2.37;2.27;;;-1.90;99.90;;;;;;4997579;28;20705;-82
2023/02/08 06:12:27;;;;;;;5.93;2.87;;;-1.90;99.90;;;;;;5008873;28;20197;-86
2023/02/08 06:14:53;;;;;;;3.13;2.43;;;-1.20;99.90;;;;;;5032297;28;20287;-83
2023/02/08 06:17:19;;;;;;;3.30;2.67;;;-0.80;99.90;;;;;;5014789;28;20214;-84
2023/02/08 06:19:44;;;;;;;3.47;2.87;;;-2.00;99.90;;;;;;4998827;28;20185;-84
2023/02/08 06:22:10;;;;;;;3.00;2.33;;;-2.10;99.90;;;;;;5011829;28;20239;-85
2023/02/08 06:24:35;;;;;;;2.37;2.20;;;-2.10;99.90;;;;;;5013455;28;20192;-85
2023/02/08 06:27:01;;;;;;;3.27;2.27;;;-1.70;99.90;;;;;;4995495;28;20196;-84
2023/02/08 06:29:27;;;;;;;2.43;2.23;;;;;;;;;;5014318;28;20196;-84
2023/02/08 06:31:53;;;;;;;5.23;3.10;;;-2.10;99.90;;;;;;5016997;28;20179;-84
2023/02/08 06:34:19;;;;;;;13.83;2.77;;;-2.10;99.90;;;;;;5014397;28;20193;-84
2023/02/08 06:36:44;;;;;;;1.73;1.63;;;-2.10;99.90;;;;;;4999077;28;20303;-84
2023/02/08 06:39:10;;;;;;;2.70;2.43;;;-1.70;99.90;;;;;;5015054;28;20189;-88
2023/02/08 06:41:36;;;;;;;6.83;3.23;;;-2.00;99.90;;;;;;4996036;28;20244;-86
2023/02/08 06:44:01;;;;;;;5.87;2.27;;;-2.00;99.90;;;;;;5003546;28;20272;-84
2023/02/08 06:46:27;;;;;;;3.27;3.07;;;-1.90;99.90;;;;;;4995917;28;20203;-84
2023/02/08 06:48:54;;;;;;;8.87;3.83;;;0.30;99.90;;;;;;4996867;28;20208;-84
2023/02/08 06:51:20;;;;;;;3.47;3.20;;;;;;;;;;4996056;28;20186;-84
2023/02/08 06:53:46;;;;;;;3.00;2.70;;;-1.90;99.90;;;;;;5011619;28;20204;-85
2023/02/08 06:56:11;;;;;;;6.83;3.27;;;-1.60;99.90;;;;;;4989838;28;20654;-84
2023/02/08 06:58:37;;;;;;;5.40;3.83;;;-1.80;99.90;;;;;;5000389;28;20232;-85
2023/02/08 07:01:03;;;;;;;3.67;3.17;;;-1.70;99.90;;;;;;4998643;28;20192;-84
2023/02/08 07:03:28;;;;;;;7.30;5.07;;;-1.70;99.90;;;;;;5002011;28;20219;-85
2023/02/08 07:05:54;;;;;;;8.57;5.63;;;-1.70;99.90;;;;;;5012551;28;20666;-84
2023/02/08 07:08:20;;;;;;;7.07;5.20;;;-1.20;99.90;;;;;;5013804;28;20675;-87
2023/02/08 07:10:47;;;;;;;7.97;5.20;;;-1.70;99.90;;;;;;5016995;28;20819;-85
2023/02/08 07:13:13;;;;;;;8.83;4.33;;;-1.60;99.90;;;;;;5021164;28;20183;-85
2023/02/08 07:15:38;;;;;;;3.87;3.13;;;-1.50;99.90;;;;;;5023530;28;20180;-85
2023/02/08 07:18:04;;;;;;;6.93;4.20;;;-1.40;99.90;;;;;;5024057;28;20568;-85
2023/02/08 07:20:30;;;;;;;8.33;4.60;;;-1.40;99.90;;;;;;5013149;28;20193;-87
2023/02/08 07:22:55;;;;;;;4.57;3.10;;;-1.40;99.90;;;;;;5008209;28;20308;-86
2023/02/08 07:25:21;;;;;;;2.77;2.57;;;-1.40;99.90;;;;;;5020024;28;20660;-86
2023/02/08 07:27:47;;;;;;;2.20;2.00;;;-1.40;99.90;;;;;;5006500;28;20279;-85
2023/02/08 07:30:13;;;;;;;4.53;3.03;;;0.10;99.90;;;;;;5013332;28;20197;-85
2023/02/08 07:32:38;;;;;;;4.63;3.17;;;-1.40;99.90;;;;;;5024172;28;20184;-86
2023/02/08 07:35:04;;;;;;;2.67;2.30;;;-1.30;99.90;;;;;;5022753;28;20182;-86
2023/02/08 07:37:31;;;;;;;6.13;2.87;;;-1.40;99.90;;;;;;5007304;28;20706;-86
2023/02/08 07:39:57;;;;;;;8.73;4.43;;;-1.40;99.90;;;;;;5005448;28;20190;-87
2023/02/08 07:42:23;;;;;;;19.07;4.17;;;-1.30;99.90;;;;;;5021755;28;20550;-85
2023/02/08 07:44:49;;;;;;;6.27;3.20;;;-1.30;99.90;;;;;;5017500;28;20184;-85
2023/02/08 07:47:16;;;;;;;9.40;5.30;;;-1.30;99.90;;;;;;4991817;28;20188;-85
2023/02/08 07:49:41;;;;;;;13.00;5.63;;;-1.30;99.90;;;;;;5004947;28;20736;-86
2023/02/08 07:52:07;;;;;;;6.77;4.03;;;-1.20;99.90;;;;;;5013475;28;20267;-86
2023/02/08 07:54:33;;;;;;;4.27;3.67;;;-1.30;99.90;;;;;;5012770;28;20546;-86
2023/02/08 07:56:58;;;;;;;5.40;4.40;;;-1.00;99.90;;;;;;5022131;28;20222;-85
2023/02/08 07:59:24;;;;;;;8.23;3.17;;;-1.10;99.90;;;;;;5018996;28;20185;-85
2023/02/08 08:01:50;;;;;;;9.43;3.07;;;-1.10;99.90;;;;;;5022979;28;20650;-84
2023/02/08 08:04:16;;;;;;;11.53;4.23;;;-1.10;99.90;;;;;;5034009;28;20190;-85
2023/02/08 08:06:41;;;;;;;4.40;2.93;;;-1.10;99.90;;;;;;5016037;28;20197;-86
2023/02/08 08:09:07;;;;;;;8.50;4.27;;;-1.00;99.90;;;;;;5024911;28;20192;-86
2023/02/08 08:11:33;;;;;;;6.80;4.47;;;-1.00;99.90;;;;;;4998834;28;20280;-85
2023/02/08 08:13:58;;;;;;;9.37;4.33;;;0.10;99.90;;;;;;5013404;28;20183;-86
2023/02/08 08:16:24;;;;;;;4.77;4.03;;;;;;;;;;4996618;28;20182;-86
2023/02/08 08:18:50;;;;;;;4.13;3.23;;;-0.80;99.90;;;;;;5013045;28;20642;-87
2023/02/08 08:21:16;;;;;;;4.30;3.23;;;-0.30;99.90;;;;;;5013248;28;20240;-86
2023/02/08 08:23:42;;;;;;;8.43;3.90;;;-0.30;99.90;;;;;;5013903;28;20197;-85
2023/02/08 08:26:10;;;;;;;8.10;3.87;;;-0.70;99.90;;;;;;5015330;28;20186;-85
2023/02/08 08:28:37;;;;;;;3.40;3.10;;;-0.60;99.90;;;;;;5014798;28;20180;-85
2023/02/08 08:31:03;;;;;;;4.53;2.53;;;;;;;;;;5014399;28;20180;-85
2023/02/08 08:33:28;;;;;;;7.27;3.97;;;-0.70;99.90;;;;;;5014147;28;20327;-85
2023/02/08 08:35:54;;;;;;;6.00;4.27;;;-0.60;99.90;;;;;;5013619;28;20268;-84
2023/02/08 08:38:19;;;;;;;11.40;4.73;;;-0.10;99.90;;;;;;5014719;28;20216;-84
2023/02/08 08:40:45;;;;;;;5.30;3.43;;;-0.40;99.90;;;;;;4997226;28;20185;-84
2023/02/08 08:43:11;;;;;;;7.57;3.83;;;0.00;99.90;;;;;;4980663;28;20177;-85
2023/02/08 08:45:37;;;;;;;4.37;3.43;;;-0.50;99.90;;;;;;5004623;28;20186;-84
2023/02/08 08:48:03;;;;;;;8.47;4.20;;;-0.70;99.90;;;;;;4997096;28;20547;-85
2023/02/08 08:50:29;;;;;;;4.53;3.47;;;-0.70;99.90;;;;;;5012562;28;20215;-85
2023/02/08 08:52:54;;;;;;;5.57;3.53;;;-0.60;99.90;;;;;;4996467;28;20216;-85
2023/02/08 08:55:20;;;;;;;3.67;3.17;;;-0.30;99.90;;;;;;5014550;28;20192;-84
2023/02/08 08:57:46;;;;;;;5.23;3.83;;;-0.10;99.90;;;;;;4980543;28;20239;-84
2023/02/08 09:00:12;;;;;;;4.07;2.90;;;0.10;99.90;;;;;;4996647;28;20186;-84
2023/02/08 09:02:37;;;;;;;3.97;2.97;;;-0.40;99.90;;;;;;4993311;28;20257;-84
2023/02/08 09:05:04;;;;;;;4.73;3.07;;;0.40;99.90;;;;;;4994103;28;20269;-84
2023/02/08 09:07:31;;;;;;;1.50;1.40;;;-0.30;99.90;;;;;;4993206;28;20216;-84
2023/02/08 09:09:57;;;;;;;2.80;2.43;;;-0.20;99.90;;;;;;4994359;28;20174;-84
2023/02/08 09:12:22;;;;;;;4.00;2.80;;;-0.40;99.90;;;;;;4993362;28;20209;-84
2023/02/08 09:14:48;;;;;;;4.53;2.40;;;0.00;99.90;;;;;;5004362;28;20197;-84
2023/02/08 09:17:14;;;;;;;6.27;2.83;;;0.00;99.90;;;;;;4996543;28;20674;-85
2023/02/08 09:19:41;;;;;;;3.00;2.33;;;0.20;99.90;;;;;;4996069;28;20180;-85
2023/02/08 09:22:07;;;;;;;3.20;2.60;;;0.10;99.90;;;;;;4996846;28;20243;-84
2023/02/08 09:24:33;;;;;;;3.40;2.47;;;0.20;99.90;;;;;;5012338;28;20622;-85
2023/02/08 09:26:59;;;;;;;7.10;2.40;;;0.20;99.90;;;;;;5013028;28;20181;-84
2023/02/08 09:29:28;;;;;;;1.97;1.87;;;0.40;99.90;;;;;;5012682;28;20227;-83
2023/02/08 09:31:54;;;;;;;5.63;2.60;;;0.50;99.90;;;;;;5014900;28;20201;-84
2023/02/08 09:34:20;;;;;;;6.97;3.00;;;0.60;99.90;;;;;;5021943;28;20525;-85
2023/02/08 09:36:45;;;;;;;3.17;1.93;;;0.60;99.90;;;;;;5019721;28;20206;-85
2023/02/08 09:39:17;;;;;;;4.13;3.30;;;0.60;99.90;;;;;;5012411;28;20181;-85
2023/02/08 09:41:43;;;;;;;6.93;2.40;;;;;;;;;;5012143;28;20173;-85
2023/02/08 09:44:38;;;;;;;6.63;2.77;;;0.50;99.90;;;;;;5017488;28;20195;-84
2023/02/08 09:47:21;;;;;;;3.27;2.50;;;0.50;99.90;;;;;;5016049;28;20184;-86
2023/02/08 09:50:05;;;;;;;4.43;2.27;;;0.60;99.90;;;;;;5011700;28;20185;-85
2023/02/08 09:52:51;;;;;;;2.17;2.07;;;0.70;99.90;;;;;;5007064;28;20181;-86
2023/02/08 09:55:29;;;;;;;4.17;3.00;;;0.60;99.90;;;;;;5005501;28;20184;-86
2023/02/08 09:57:58;;;;;;;4.67;2.57;;;1.20;99.90;;;;;;5019495;28;20213;-86
2023/02/08 10:00:34;;;;;;;2.43;1.97;;;0.70;99.90;;;;;;5012327;28;20177;-83
2023/02/08 10:03:01;;;;;;;4.17;3.13;;;3.60;99.90;;;;;;5015194;28;20181;-84
2023/02/08 10:05:30;;;;;;;7.20;3.17;;;1.00;99.90;;;;;;5017557;28;20638;-85
2023/02/08 10:07:57;;;;;;;5.03;2.93;;;1.30;99.90;;;;;;5016855;28;20649;-84
2023/02/08 10:10:38;;;;;;;5.97;3.90;;;1.40;99.90;;;;;;5002444;28;20188;-84
2023/02/08 10:13:38;;;;;;;4.43;2.93;;;1.40;99.90;;;;;;5019934;28;20226;-84
2023/02/08 10:16:25;;;;;;;6.93;4.73;;;1.80;99.90;;;;;;5020644;28;20226;-85
2023/02/08 10:19:33;;;;;;;10.40;4.57;;;1.80;99.90;;;;;;5020465;28;20196;-85
2023/02/08 10:22:23;;;;;;;6.90;3.47;;;2.10;99.90;;;;;;5032062;28;20240;-86
2023/02/08 10:25:03;;;;;;;3.43;2.80;;;2.10;99.90;;;;;;5015671;28;20191;-85
2023/02/08 10:27:44;;;;;;;4.80;3.53;;;2.20;99.90;;;;;;5017894;28;20172;-85
2023/02/08 10:30:48;;;;;;;9.77;3.43;;;2.40;99.90;;;;;;5023967;28;20226;-85
2023/02/08 10:33:14;;;;;;;4.57;3.50;;;2.40;99.90;;;;;;4989217;28;20188;-85
2023/02/08 10:35:49;;;;;;;3.27;2.10;;;2.50;99.90;;;;;;5017753;28;20184;-86
2023/02/08 10:38:18;;;;;;;5.77;3.33;;;2.60;99.90;;;;;;5014334;28;20702;-86
2023/02/08 10:40:44;;;;;;;6.17;2.57;;;;;;;;;;5015078;28;20272;-86
2023/02/08 10:43:47;;;;;;;11.30;4.13;;;2.60;99.90;;;;;;5013215;28;20189;-86
2023/02/08 10:46:27;;;;;;;7.07;4.40;;;2.60;99.60;;;;;;4998800;28;20216;-85
2023/02/08 10:48:58;;;;;;;5.07;2.70;;;2.60;99.90;;;;;;4995243;28;20641;-86
2023/02/08 10:51:25;;;;;;;10.40;3.33;;;2.50;99.40;;;;;;4997636;28;20185;-87
2023/02/08 10:53:52;;;;;;;6.50;3.03;;;2.50;99.90;;;;;;5014861;28;20243;-85
2023/02/08 10:56:26;;;;;;;8.97;4.67;;;2.50;99.40;;;;;;5013029;28;20718;-85
2023/02/08 10:58:52;;;;;;;12.97;4.37;;;2.60;99.90;;;;;;5014655;28;20207;-86
2023/02/08 11:01:18;;;;;;;6.47;3.60;;;;;;;;;;4997768;28;20188;-89
2023/02/08 11:04:11;;;;;;;2.63;1.73;;;2.70;99.90;;;;;;5015838;28;20184;-86
2023/02/08 11:06:39;;;;;;;9.23;3.47;;;2.80;98.10;;;;;;5015115;28;20242;-85
2023/02/08 11:09:05;;;;;;;4.47;2.40;;;2.90;99.80;;;;;;5016033;28;20208;-85
2023/02/08 11:11:37;;;;;;;11.67;5.10;;;2.90;98.20;;;;;;5015393;28;20186;-87
2023/02/08 11:14:17;;;;;;;51.63;19.30;;;3.00;99.10;;;;;;5015558;28;20502;-85
2023/02/08 11:16:55;;;;;;;18.07;8.40;;;3.10;97.00;;;;;;5015716;28;20230;-85
2023/02/08 11:19:34;;;;;;;9.90;4.53;;;3.10;97.30;;;;;;5017996;28;20335;-86
2023/02/08 11:22:04;;;;;;;7.77;3.80;;;3.00;96.90;;;;;;5014212;28;20701;-86
2023/02/08 11:24:40;;;;;;;5.70;3.13;;;3.00;97.00;;;;;;4998723;28;20197;-86
2023/02/08 11:27:29;;;;;;;10.27;3.07;;;3.00;98.50;;;;;;4998318;28;20192;-85
2023/02/08 11:30:23;;;;;;;10.73;4.57;;;3.20;97.80;;;;;;5002227;28;20182;-85
2023/02/08 11:33:12;;;;;;;6.30;3.13;;;3.30;96.80;;;;;;4993419;28;20205;-87
2023/02/08 11:35:40;;;;;;;10.60;4.70;;;3.20;96.50;;;;;;4988389;28;20641;-86
2023/02/08 11:38:08;;;;;;;4.77;3.73;;;3.10;95.40;;;;;;4976016;28;20334;-86
2023/02/08 11:40:41;;;;;;;12.73;6.07;;;3.00;97.90;;;;;;4959653;28;20209;-86
2023/02/08 11:43:29;;;;;;;7.13;4.00;;;3.00;98.20;;;;;;4974963;28;20281;-86
2023/02/08 11:45:57;;;;;;;11.40;5.03;;;3.20;97.70;;;;;;4993999;28;20193;-86
2023/02/08 11:48:48;;;;;;;12.53;6.07;;;3.50;96.40;;;;;;4982192;28;20220;-84
2023/02/08 11:51:26;;;;;;;21.53;8.27;;;3.70;96.20;;;;;;4974902;28;20202;-86
2023/02/08 11:53:52;;;;;;;16.23;5.67;;;3.70;95.50;;;;;;4994372;28;20265;-86
2023/02/08 11:56:26;;;;;;;14.87;4.53;;;3.50;95.50;;;;;;4993781;28;20193;-86
2023/02/08 11:59:14;;;;;;;9.57;5.10;;;3.40;95.20;;;;;;4995476;28;20191;-86
2023/02/08 12:01:41;;;;;;;19.73;5.93;;;3.30;96.80;;;;;;4990883;28;20186;-85
2023/02/08 12:04:10;;;;;;;7.10;4.47;;;3.20;97.60;;;;;;4975676;28;20201;-85
2023/02/08 12:06:54;;;;;;;6.37;3.60;;;3.40;97.90;;;;;;4975836;28;20170;-85
2023/02/08 12:09:35;;;;;;;6.40;3.80;;;3.40;97.00;;;;;;5006449;28;20256;-86
2023/02/08 12:12:16;;;;;;;5.77;3.33;;;3.40;98.10;;;;;;4995030;28;20169;-85
2023/02/08 12:15:05;;;;;;;7.57;4.10;;;3.80;98.10;;;;;;4994059;28;20185;-85
2023/02/08 12:17:51;;;;;;;11.17;4.90;;;4.20;95.70;;;;;;4995455;28;20204;-85
2023/02/08 12:20:44;;;;;;;6.23;4.13;;;5.20;91.90;;;;;;4994625;28;20542;-85
2023/02/08 12:23:31;;;;;;;8.83;4.13;;;5.50;86.20;;;;;;4994193;28;20587;-85
2023/02/08 12:26:16;;;;;;;5.70;3.53;;;5.30;85.60;;;;;;4992659;28;20185;-86
2023/02/08 12:29:15;;;;;;;14.90;4.27;;;5.00;85.50;;;;;;4995264;28;20198;-83
2023/02/08 12:32:00;;;;;;;7.00;4.47;;;4.40;87.00;;;;;;4995205;28;20662;-85
2023/02/08 12:35:07;;;;;;;7.93;4.97;;;3.90;88.70;;;;;;4994452;28;20558;-85
2023/02/08 12:40:54;;;;;;;8.37;4.83;;;3.60;91.50;;;;;;4993513;28;20281;-85
2023/02/08 12:43:39;;;;;;;10.27;5.20;;;3.50;94.60;;;;;;4994262;28;20194;-83
2023/02/08 12:46:23;;;;;;;7.60;4.30;;;3.80;91.70;;;;;;5001002;28;20225;-85
2023/02/08 12:49:13;;;;;;;7.43;4.03;;;3.80;90.40;;;;;;5003010;28;20181;-85
2023/02/08 12:52:01;;;;;;;6.77;4.00;;;3.50;91.10;;;;;;5001057;28;20173;-86
2023/02/08 12:55:01;;;;;;;11.37;5.03;;;3.30;91.00;;;;;;5003641;28;20181;-85
2023/02/08 12:57:30;;;;;;;14.10;4.23;;;3.40;91.20;;;;;;4953653;28;20229;-86
2023/02/08 13:00:03;;;;;;;4.13;2.97;;;3.30;90.50;;;;;;4985525;28;20504;-86
2023/02/08 13:02:43;;;;;;;10.30;4.40;;;2.70;90.90;;;;;;4999401;28;20181;-84
2023/02/08 13:05:17;;;;;;;7.03;4.60;;;2.70;93.00;;;;;;5003901;28;20556;-85
2023/02/08 13:07:49;;;;;;;6.07;3.40;;;2.90;93.60;;;;;;5000087;28;20180;-86
2023/02/08 13:10:37;;;;;;;6.50;3.33;;;3.20;93.00;;;;;;5001696;28;20162;-84
2023/02/08 13:13:29;;;;;;;7.07;4.37;;;3.60;92.10;;;;;;4999114;28;20173;-85
2023/02/08 13:16:18;;;;;;;9.80;5.13;;;3.80;90.70;;;;;;5010170;28;20177;-85